createdAt,value
2017-12-13T00:00:24.783Z,99170.02
2017-12-13T00:02:51.203Z,99170.84
2017-12-13T00:05:17.541Z,99176.62
2017-12-13T00:07:43.856Z,99177.99
2017-12-13T00:10:10.302Z,99174.00
2017-12-13T00:12:36.735Z,99180.20
2017-12-13T00:15:03.889Z,99176.25
2017-12-13T00:17:30.363Z,99173.95
2017-12-13T00:19:56.843Z,99185.16
2017-12-13T00:22:23.225Z,99178.83
2017-12-13T00:24:49.557Z,99175.98
2017-12-13T00:27:15.966Z,99174.28
2017-12-13T00:29:42.393Z,99169.94
2017-12-13T00:32:09.646Z,99164.78
2017-12-13T00:34:36.133Z,99168.17
2017-12-13T00:37:02.445Z,99168.63
2017-12-13T00:39:28.847Z,99170.61
2017-12-13T00:41:55.213Z,99164.46
2017-12-13T00:44:21.618Z,99170.02
2017-12-13T00:46:48.049Z,99178.23
2017-12-13T00:49:15.202Z,99179.98
2017-12-13T00:51:41.636Z,99178.52
2017-12-13T00:54:08.000Z,99176.48
2017-12-13T00:56:34.401Z,99171.53
2017-12-13T00:59:00.836Z,99177.44
2017-12-13T01:01:27.374Z,99178.27
2017-12-13T01:03:53.808Z,99172.21
2017-12-13T01:06:20.856Z,99169.83
2017-12-13T01:08:47.225Z,99167.08
2017-12-13T01:11:13.655Z,99168.47
2017-12-13T01:13:40.059Z,99157.20
2017-12-13T01:16:06.493Z,99162.98
2017-12-13T01:18:32.927Z,99162.08
2017-12-13T01:20:59.363Z,99165.16
2017-12-13T01:23:26.486Z,99156.53
2017-12-13T01:25:52.928Z,99163.36
2017-12-13T01:28:19.371Z,99154.73
2017-12-13T01:30:45.765Z,99163.06
2017-12-13T01:33:12.252Z,99155.55
2017-12-13T01:35:38.772Z,99151.07
2017-12-13T01:38:05.223Z,99152.12
2017-12-13T01:40:32.356Z,99160.05
2017-12-13T01:42:58.808Z,99159.41
2017-12-13T01:45:25.175Z,99158.86
2017-12-13T01:47:51.510Z,99156.48
2017-12-13T01:50:17.908Z,99159.50
2017-12-13T01:52:44.342Z,99153.67
2017-12-13T01:55:10.781Z,99157.27
2017-12-13T01:57:37.928Z,99162.16
2017-12-13T02:00:04.367Z,99150.93
2017-12-13T02:02:30.798Z,99152.39
2017-12-13T02:04:57.335Z,99151.47
2017-12-13T02:07:23.771Z,99152.34
2017-12-13T02:09:50.205Z,99152.92
2017-12-13T02:12:16.638Z,99150.17
2017-12-13T02:14:43.892Z,99148.49
2017-12-13T02:17:10.227Z,99145.95
2017-12-13T02:19:36.660Z,99141.22
2017-12-13T02:22:03.071Z,99129.45
2017-12-13T02:24:29.530Z,99149.97
2017-12-13T02:26:55.861Z,99151.59
2017-12-13T02:29:22.293Z,99149.85
2017-12-13T02:31:49.447Z,99145.34
2017-12-13T02:34:15.899Z,99138.11
2017-12-13T02:36:42.316Z,99137.87
2017-12-13T02:39:08.750Z,99134.59
2017-12-13T02:41:35.188Z,99128.01
2017-12-13T02:44:01.640Z,99135.80
2017-12-13T02:46:28.053Z,99131.25
2017-12-13T02:48:55.201Z,99125.98
2017-12-13T02:51:21.515Z,99124.28
2017-12-13T02:53:47.869Z,99123.34
2017-12-13T02:56:14.305Z,99117.86
2017-12-13T02:58:40.748Z,99120.57
2017-12-13T03:01:07.174Z,99114.98
2017-12-13T03:03:33.607Z,99118.33
2017-12-13T03:06:00.829Z,99119.17
2017-12-13T03:08:27.229Z,99126.34
2017-12-13T03:10:53.712Z,99117.28
2017-12-13T03:13:20.166Z,99125.17
2017-12-13T03:15:46.600Z,99131.00
2017-12-13T03:18:12.932Z,99121.94
2017-12-13T03:20:39.366Z,99121.98
2017-12-13T03:23:06.518Z,99124.23
2017-12-13T03:25:32.952Z,99124.59
2017-12-13T03:27:59.387Z,99123.95
2017-12-13T03:30:25.821Z,99119.76
2017-12-13T03:32:52.191Z,99120.93
2017-12-13T03:35:18.588Z,99117.22
2017-12-13T03:37:45.024Z,99120.12
2017-12-13T03:40:12.266Z,99118.84
2017-12-13T03:42:38.711Z,99115.59
2017-12-13T03:45:05.146Z,99129.06
2017-12-13T03:47:31.580Z,99121.21
2017-12-13T03:49:58.015Z,99125.05
2017-12-13T03:52:24.450Z,99117.81
2017-12-13T03:54:50.906Z,99119.03
2017-12-13T03:57:18.141Z,99122.73
2017-12-13T03:59:44.573Z,99127.71
2017-12-13T04:02:11.008Z,99131.47
2017-12-13T04:04:37.442Z,99131.63
2017-12-13T04:07:03.879Z,99128.61
2017-12-13T04:09:30.333Z,99132.39
2017-12-13T04:11:56.746Z,99133.67
2017-12-13T04:14:23.897Z,99127.03
2017-12-13T04:16:50.299Z,99138.56
2017-12-13T04:19:16.769Z,99136.14
2017-12-13T04:21:43.203Z,99143.86
2017-12-13T04:24:09.637Z,99142.08
2017-12-13T04:26:36.071Z,99149.05
2017-12-13T04:29:02.607Z,99146.09
2017-12-13T04:31:29.651Z,99147.12
2017-12-13T04:33:56.094Z,99157.58
2017-12-13T04:36:22.559Z,99157.86
2017-12-13T04:38:48.962Z,99157.28
2017-12-13T04:41:15.398Z,99153.88
2017-12-13T04:43:41.831Z,99145.45
2017-12-13T04:46:08.265Z,99147.81
2017-12-13T04:48:35.416Z,99148.52
2017-12-13T04:51:01.952Z,99151.73
2017-12-13T04:53:28.388Z,99135.67
2017-12-13T04:55:54.821Z,99114.58
2017-12-13T04:58:21.184Z,99144.75
2017-12-13T05:00:47.588Z,99145.79
2017-12-13T05:03:13.920Z,99147.14
2017-12-13T05:05:41.174Z,99147.30
2017-12-13T05:08:07.609Z,99154.11
2017-12-13T05:10:34.042Z,99159.36
2017-12-13T05:13:00.580Z,99161.13
2017-12-13T05:15:27.014Z,99162.91
2017-12-13T05:17:53.453Z,99157.50
2017-12-13T05:20:19.817Z,99165.94
2017-12-13T05:22:47.035Z,99165.58
2017-12-13T05:25:13.473Z,99171.02
2017-12-13T05:27:39.890Z,99168.98
2017-12-13T05:30:06.277Z,99171.98
2017-12-13T05:32:32.776Z,99173.84
2017-12-13T05:34:59.209Z,99169.41
2017-12-13T05:37:25.643Z,99172.18
2017-12-13T05:39:52.775Z,99179.00
2017-12-13T05:42:19.156Z,99176.21
2017-12-13T05:44:45.535Z,99181.94
2017-12-13T05:47:11.903Z,99186.22
2017-12-13T05:49:38.328Z,99157.68
2017-12-13T05:52:04.660Z,99191.91
2017-12-13T05:54:31.096Z,99197.09
2017-12-13T05:56:58.276Z,99197.62
2017-12-13T05:59:24.783Z,99199.82
2017-12-13T06:01:51.164Z,99206.17
2017-12-13T06:04:17.652Z,99210.28
2017-12-13T06:06:44.086Z,99211.72
2017-12-13T06:09:10.521Z,99218.03
2017-12-13T06:11:36.956Z,99216.86
2017-12-13T06:14:04.208Z,99223.09
2017-12-13T06:16:30.664Z,99219.16
2017-12-13T06:18:57.078Z,99214.84
2017-12-13T06:21:23.513Z,99213.88
2017-12-13T06:23:49.845Z,99205.03
2017-12-13T06:26:16.382Z,99203.75
2017-12-13T06:28:42.816Z,99198.38
2017-12-13T06:31:09.868Z,99198.61
2017-12-13T06:33:36.405Z,99210.69
2017-12-13T06:36:02.940Z,99219.11
2017-12-13T06:38:29.375Z,99222.33
2017-12-13T06:40:55.810Z,99221.77
2017-12-13T06:43:22.243Z,99226.59
2017-12-13T06:45:48.678Z,99218.56
2017-12-13T06:48:15.051Z,99212.30
2017-12-13T06:50:41.956Z,99205.59
2017-12-13T06:53:08.397Z,99220.38
2017-12-13T06:55:34.833Z,99220.58
2017-12-13T06:58:02.182Z,99221.38
2017-12-13T07:00:28.616Z,99218.20
2017-12-13T07:13:01.005Z,99218.75
2017-12-13T07:15:27.808Z,99216.59
2017-12-13T07:17:54.241Z,99209.63
2017-12-13T07:20:20.780Z,99205.38
2017-12-13T07:22:47.635Z,99198.73
2017-12-13T07:25:13.957Z,99198.33
2017-12-13T07:27:40.291Z,99201.55
2017-12-13T07:30:06.723Z,99194.81
2017-12-13T07:32:33.465Z,99189.51
2017-12-13T07:34:59.901Z,99189.25
2017-12-13T07:37:26.332Z,99197.00
2017-12-13T07:39:52.971Z,99189.52
2017-12-13T07:42:19.406Z,99193.66
2017-12-13T07:44:45.738Z,99192.73
2017-12-13T07:47:12.584Z,99197.16
2017-12-13T07:49:39.024Z,99200.38
2017-12-13T07:52:05.554Z,99201.40
2017-12-13T07:54:32.388Z,99198.88
2017-12-13T07:56:58.833Z,99177.27
2017-12-13T07:59:25.212Z,99198.11
2017-12-13T08:01:51.804Z,99197.19
2017-12-13T08:04:18.192Z,99199.98
2017-12-13T08:06:44.749Z,99201.64
2017-12-13T08:09:11.550Z,99201.16
2017-12-13T08:11:38.157Z,99212.82
2017-12-13T08:14:04.591Z,99217.35
2017-12-13T08:16:31.272Z,99214.08
2017-12-13T08:18:57.666Z,99213.00
2017-12-13T08:21:24.053Z,99209.75
2017-12-13T08:23:50.773Z,99208.92
2017-12-13T08:26:18.533Z,99203.77
2017-12-13T08:28:45.210Z,99202.75
2017-12-13T08:31:11.936Z,99200.25
2017-12-13T08:33:38.529Z,99203.91
2017-12-13T08:36:04.932Z,99201.64
2017-12-13T08:38:31.573Z,99195.77
2017-12-13T08:40:58.137Z,99173.52
2017-12-13T08:43:24.558Z,99166.48
2017-12-13T08:45:51.404Z,99162.42
2017-12-13T08:48:17.849Z,99167.41
2017-12-13T08:50:44.362Z,99165.05
2017-12-13T08:53:11.164Z,99158.67
2017-12-13T08:55:37.519Z,99165.44
2017-12-13T08:58:03.840Z,99164.77
2017-12-13T09:00:30.685Z,99167.88
2017-12-13T09:02:57.046Z,99142.64
2017-12-13T09:05:23.440Z,99147.41
2017-12-13T09:07:49.942Z,99146.88
2017-12-13T09:10:16.710Z,99140.18
2017-12-13T09:12:43.149Z,99134.55
2017-12-13T09:15:09.833Z,99128.17
2017-12-13T09:17:36.513Z,99130.68
2017-12-13T09:20:02.997Z,99107.60
2017-12-13T09:22:29.617Z,99124.09
2017-12-13T09:24:56.213Z,99139.36
2017-12-13T09:27:23.070Z,99121.14
2017-12-13T09:29:49.491Z,99115.36
2017-12-13T09:32:16.134Z,99111.25
2017-12-13T09:34:42.567Z,99106.89
2017-12-13T09:37:08.999Z,99106.27
2017-12-13T09:39:35.434Z,99112.09
2017-12-13T09:42:01.885Z,99101.58
2017-12-13T09:44:28.303Z,99098.61
2017-12-13T09:46:54.948Z,99098.27
2017-12-13T09:49:21.312Z,99080.23
2017-12-13T09:51:47.918Z,99079.13
2017-12-13T09:54:14.451Z,99078.92
2017-12-13T09:56:40.849Z,99065.88
2017-12-13T09:59:07.351Z,99071.98
2017-12-13T10:01:34.339Z,99050.69
2017-12-13T10:04:00.782Z,99071.67
2017-12-13T10:06:27.751Z,99045.59
2017-12-13T10:08:54.408Z,99062.95
2017-12-13T10:11:20.909Z,99061.15
2017-12-13T10:13:47.296Z,99053.36
2017-12-13T10:16:14.109Z,99052.63
2017-12-13T10:18:40.540Z,99052.05
2017-12-13T10:21:07.075Z,99034.92
2017-12-13T10:23:33.919Z,99031.05
2017-12-13T10:26:00.353Z,99031.28
2017-12-13T10:28:26.788Z,99033.05
2017-12-13T10:30:53.426Z,99027.20
2017-12-13T10:33:20.100Z,99021.44
2017-12-13T10:35:46.523Z,99022.45
2017-12-13T10:38:12.869Z,99023.61
2017-12-13T10:40:39.784Z,99023.18
2017-12-13T10:43:06.216Z,99002.54
2017-12-13T10:45:32.652Z,99015.52
2017-12-13T10:47:59.496Z,99015.11
2017-12-13T10:50:25.947Z,99013.09
2017-12-13T10:52:52.466Z,99017.39
2017-12-13T10:55:19.245Z,99016.37
2017-12-13T10:57:45.743Z,99011.05
2017-12-13T11:00:12.276Z,99007.80
2017-12-13T11:02:39.333Z,99014.33
2017-12-13T11:05:05.777Z,99012.78
2017-12-13T11:07:32.203Z,98998.43
2017-12-13T11:09:58.842Z,98993.86
2017-12-13T11:12:25.242Z,98987.33
2017-12-13T11:14:51.708Z,98988.37
2017-12-13T11:17:18.333Z,98979.55
2017-12-13T11:19:44.776Z,98977.59
2017-12-13T11:22:11.282Z,98977.14
2017-12-13T11:24:37.865Z,98973.14
2017-12-13T11:27:04.290Z,98976.09
2017-12-13T11:29:30.725Z,98978.50
2017-12-13T11:31:57.364Z,98981.20
2017-12-13T11:34:23.798Z,98972.70
2017-12-13T11:36:50.540Z,98963.28
2017-12-13T11:39:17.213Z,98959.78
2017-12-13T11:41:43.682Z,98959.08
2017-12-13T11:44:10.253Z,98966.28
2017-12-13T11:46:37.097Z,98967.41
2017-12-13T11:49:03.635Z,98972.50
2017-12-13T11:51:30.172Z,98964.27
2017-12-13T11:53:56.811Z,98960.68
2017-12-13T11:56:23.180Z,98964.58
2017-12-13T11:58:49.657Z,98963.55
2017-12-13T12:01:16.425Z,98970.15
2017-12-13T12:03:43.286Z,98970.27
2017-12-13T12:06:09.884Z,98967.00
2017-12-13T12:08:36.591Z,98962.80
2017-12-13T12:11:03.171Z,98956.06
2017-12-13T12:13:29.620Z,98954.42
2017-12-13T12:15:56.259Z,98957.53
2017-12-13T12:18:22.673Z,98948.98
2017-12-13T12:20:49.160Z,98948.05
2017-12-13T12:23:16.010Z,98947.08
2017-12-13T12:25:42.817Z,98943.66
2017-12-13T12:28:09.355Z,98947.97
2017-12-13T12:30:36.197Z,98938.70
2017-12-13T12:33:02.735Z,98933.67
2017-12-13T12:35:29.168Z,98933.78
2017-12-13T12:37:56.058Z,98925.95
2017-12-13T12:40:22.632Z,98926.88
2017-12-13T12:42:49.260Z,98930.47
2017-12-13T12:45:18.620Z,98925.26
2017-12-13T12:47:47.236Z,98922.14
2017-12-13T12:50:13.819Z,98887.38
2017-12-13T12:52:40.496Z,98911.59
2017-12-13T12:55:06.987Z,98912.81
2017-12-13T12:57:35.639Z,98928.64
2017-12-13T13:00:02.632Z,98928.42
2017-12-13T13:02:29.167Z,98922.50
2017-12-13T13:04:55.601Z,98922.84
2017-12-13T13:07:22.548Z,98919.27
2017-12-13T13:09:49.085Z,98922.88
2017-12-13T13:12:15.521Z,98921.61
2017-12-13T13:14:42.096Z,98911.16
2017-12-13T13:17:08.595Z,98888.63
2017-12-13T13:19:35.027Z,98905.20
2017-12-13T13:22:01.874Z,98911.34
2017-12-13T13:24:28.305Z,98913.96
2017-12-13T13:26:54.676Z,98913.80
2017-12-13T13:29:21.484Z,98916.48
2017-12-13T13:31:47.921Z,98892.97
2017-12-13T13:34:14.351Z,98912.08
2017-12-13T13:36:40.990Z,98907.23
2017-12-13T13:39:07.361Z,98898.98
2017-12-13T13:41:34.101Z,98913.61
2017-12-13T13:44:00.807Z,98909.99
2017-12-13T13:46:27.321Z,98911.16
2017-12-13T13:48:54.525Z,98911.94
2017-12-13T13:51:21.339Z,98910.45
2017-12-13T13:53:47.877Z,98910.12
2017-12-13T13:56:14.310Z,98912.88
2017-12-13T13:58:40.951Z,98880.25
2017-12-13T14:01:07.552Z,98892.27
2017-12-13T14:03:34.025Z,98889.20
2017-12-13T14:06:00.664Z,98887.77
2017-12-13T14:08:27.101Z,98882.14
2017-12-13T14:10:53.642Z,98876.66
2017-12-13T14:13:20.519Z,98868.00
2017-12-13T14:15:46.954Z,98866.42
2017-12-13T14:18:13.451Z,98867.45
2017-12-13T14:20:40.090Z,98869.69
2017-12-13T14:23:06.527Z,98860.98
2017-12-13T14:25:32.961Z,98858.27
2017-12-13T14:27:59.532Z,98862.08
2017-12-13T14:32:57.215Z,98872.50
2017-12-13T14:35:23.819Z,98865.27
2017-12-13T14:37:50.252Z,98874.39
2017-12-13T14:40:16.789Z,98880.76
2017-12-13T14:42:43.711Z,98851.17
2017-12-13T14:45:10.298Z,98868.43
2017-12-13T14:47:37.220Z,98872.99
2017-12-13T14:50:04.065Z,98876.12
2017-12-13T14:52:30.499Z,98876.73
2017-12-13T14:54:56.933Z,98877.86
2017-12-13T14:57:23.612Z,98888.87
2017-12-13T14:59:50.314Z,98894.41
2017-12-13T15:02:16.721Z,98890.30
2017-12-13T15:04:44.108Z,98883.19
2017-12-13T15:22:21.027Z,98880.32
2017-12-13T15:24:47.412Z,98876.50
2017-12-13T15:27:13.793Z,98872.24
2017-12-13T15:29:40.228Z,98871.92
2017-12-13T15:32:06.766Z,98832.09
2017-12-13T15:34:33.099Z,98866.41
2017-12-13T15:36:59.534Z,98868.50
2017-12-13T15:39:25.968Z,98870.66
2017-12-13T15:41:52.406Z,98868.71
2017-12-13T15:44:18.837Z,98873.50
2017-12-13T15:46:45.273Z,98869.27
2017-12-13T15:49:11.694Z,98872.39
2017-12-13T15:51:38.139Z,98873.30
2017-12-13T15:54:04.760Z,98853.00
2017-12-13T15:56:31.203Z,98872.44
2017-12-13T15:58:57.618Z,98866.39
2017-12-13T16:01:24.082Z,98874.08
2017-12-13T16:03:50.503Z,98870.05
2017-12-13T16:06:16.952Z,98863.28
2017-12-13T16:08:43.284Z,98861.36
2017-12-13T16:11:09.741Z,98871.83
2017-12-13T16:13:36.054Z,98860.88
2017-12-13T16:16:02.485Z,98864.48
2017-12-13T16:18:28.818Z,98858.39
2017-12-13T16:20:55.252Z,98865.42
2017-12-13T16:23:21.694Z,98867.34
2017-12-13T16:25:48.325Z,98866.28
2017-12-13T16:28:14.792Z,98860.38
2017-12-13T16:30:41.196Z,98857.17
2017-12-13T16:33:07.630Z,98857.20
2017-12-13T16:35:33.961Z,98846.07
2017-12-13T16:38:00.396Z,98844.61
2017-12-13T16:40:26.765Z,98838.02
2017-12-13T16:42:53.163Z,98834.84
2017-12-13T16:45:19.597Z,98830.31
2017-12-13T16:47:45.966Z,98831.13
2017-12-13T16:50:12.302Z,98832.22
2017-12-13T16:52:38.696Z,98833.29
2017-12-13T16:55:05.131Z,98828.33
2017-12-13T16:57:31.584Z,98827.41
2017-12-13T16:59:57.980Z,98827.41
2017-12-13T17:02:24.437Z,98826.87
2017-12-13T17:04:50.768Z,98826.08
2017-12-13T17:07:17.133Z,98825.94
2017-12-13T17:09:43.557Z,98829.67
2017-12-13T17:12:10.070Z,98826.97
2017-12-13T17:14:36.589Z,98831.73
2017-12-13T17:17:02.976Z,98826.23
2017-12-13T17:19:29.375Z,98819.13
2017-12-13T17:21:55.811Z,98829.03
2017-12-13T17:24:22.141Z,98827.63
2017-12-13T17:26:48.503Z,98833.56
2017-12-13T17:29:14.909Z,98834.40
2017-12-13T17:31:41.445Z,98815.89
2017-12-13T17:34:07.881Z,98831.63
2017-12-13T17:36:34.419Z,98831.16
2017-12-13T17:39:00.957Z,98835.54
2017-12-13T17:41:27.389Z,98835.42
2017-12-13T17:43:53.720Z,98828.78
2017-12-13T17:46:20.053Z,98827.55
2017-12-13T17:48:46.487Z,98827.20
2017-12-13T17:51:12.923Z,98816.91
2017-12-13T17:53:39.255Z,98820.52
2017-12-13T17:56:05.689Z,98830.34
2017-12-13T17:58:32.146Z,98831.70
2017-12-13T18:00:58.574Z,98828.52
2017-12-13T18:03:24.993Z,98828.52
2017-12-13T18:05:51.767Z,98821.68
2017-12-13T18:08:18.086Z,98820.13
2017-12-13T18:10:44.579Z,98827.75
2017-12-13T18:13:11.039Z,98813.07
2017-12-13T18:15:37.404Z,98829.38
2017-12-13T18:18:03.702Z,98830.09
2017-12-13T18:20:30.138Z,98824.87
2017-12-13T18:22:56.573Z,98819.01
2017-12-13T18:25:23.005Z,98817.45
2017-12-13T18:27:49.441Z,98796.06
2017-12-13T18:30:15.875Z,98809.59
2017-12-13T18:32:42.311Z,98813.22
2017-12-13T18:35:08.690Z,98808.12
2017-12-13T18:37:35.043Z,98814.84
2017-12-13T18:40:01.439Z,98817.41
2017-12-13T18:42:27.865Z,98812.59
2017-12-13T18:44:54.174Z,98807.23
2017-12-13T18:47:20.514Z,98801.91
2017-12-13T18:49:47.454Z,98796.45
2017-12-13T18:52:13.888Z,98806.07
2017-12-13T18:54:40.217Z,98807.25
2017-12-13T18:57:06.658Z,98809.00
2017-12-13T18:59:33.090Z,98800.98
2017-12-13T19:01:59.524Z,98799.38
2017-12-13T19:04:25.959Z,98788.27
2017-12-13T19:06:52.323Z,98780.64
2017-12-13T19:09:18.726Z,98767.79
2017-12-13T19:11:45.161Z,98770.70
2017-12-13T19:14:11.614Z,98769.36
2017-12-13T19:16:37.963Z,98763.63
2017-12-13T19:19:04.363Z,98763.33
2017-12-13T19:21:30.800Z,98753.20
2017-12-13T19:23:57.232Z,98746.83
2017-12-13T19:26:23.667Z,98745.09
2017-12-13T19:28:50.101Z,98745.09
2017-12-13T19:31:16.463Z,98749.87
2017-12-13T19:33:42.835Z,98743.40
2017-12-13T19:36:09.233Z,98740.56
2017-12-13T19:38:35.690Z,98742.02
2017-12-13T19:41:02.069Z,98738.95
2017-12-13T19:43:28.503Z,98724.79
2017-12-13T19:45:54.940Z,98732.53
2017-12-13T19:48:21.373Z,98722.37
2017-12-13T19:50:47.810Z,98724.22
2017-12-13T19:53:14.128Z,98723.83
2017-12-13T19:55:40.613Z,98727.22
2017-12-13T19:58:06.963Z,98722.64
2017-12-13T20:00:33.362Z,98719.26
2017-12-13T20:02:59.775Z,98721.38
2017-12-13T20:05:26.107Z,98722.81
2017-12-13T20:07:52.542Z,98723.66
2017-12-13T20:10:18.872Z,98723.67
2017-12-13T20:12:45.290Z,98715.92
2017-12-13T20:15:11.743Z,98721.55
2017-12-13T20:17:38.180Z,98720.80
2017-12-13T20:20:04.612Z,98718.23
2017-12-13T20:22:31.151Z,98715.33
2017-12-13T20:24:57.604Z,98709.34
2017-12-13T20:27:24.018Z,98716.19
2017-12-13T20:29:50.454Z,98718.90
2017-12-13T20:32:16.991Z,98719.58
2017-12-13T20:34:43.447Z,98710.63
2017-12-13T20:37:09.859Z,98708.36
2017-12-13T20:39:36.293Z,98701.41
2017-12-13T20:42:02.727Z,98704.62
2017-12-13T20:44:29.059Z,98715.46
2017-12-13T20:46:55.393Z,98711.30
2017-12-13T20:49:21.894Z,98717.18
2017-12-13T20:51:48.261Z,98715.73
2017-12-13T20:54:14.624Z,98718.81
2017-12-13T20:56:41.028Z,98713.06
2017-12-13T20:59:07.466Z,98711.32
2017-12-13T21:01:33.884Z,98718.41
2017-12-13T21:04:00.333Z,98722.55
2017-12-13T21:06:26.872Z,98715.73
2017-12-13T21:08:53.304Z,98718.38
2017-12-13T21:11:19.738Z,98712.63
2017-12-13T21:13:46.072Z,98714.06
2017-12-13T21:16:12.507Z,98707.77
2017-12-13T21:18:38.944Z,98716.06
2017-12-13T21:21:05.376Z,98691.63
2017-12-13T21:23:31.814Z,98715.40
2017-12-13T21:25:58.246Z,98739.23
2017-12-13T21:28:24.681Z,98742.28
2017-12-13T21:30:51.135Z,98749.63
2017-12-13T21:33:17.508Z,98736.41
2017-12-13T21:35:43.951Z,98743.77
2017-12-13T21:38:10.314Z,98735.08
2017-12-13T21:40:36.736Z,98729.32
2017-12-13T21:43:03.110Z,98734.95
2017-12-13T21:45:29.449Z,98741.55
2017-12-13T21:47:55.847Z,98739.00
2017-12-13T21:50:22.281Z,98744.36
2017-12-13T21:52:48.717Z,98744.11
2017-12-13T21:55:15.088Z,98738.90
2017-12-13T21:57:41.485Z,98742.09
2017-12-13T22:00:07.918Z,98735.66
2017-12-13T22:02:34.288Z,98759.31
2017-12-13T22:05:00.686Z,98772.66
2017-12-13T22:07:27.119Z,98738.80
2017-12-13T22:09:53.658Z,98766.52
2017-12-13T22:12:19.989Z,98748.65
2017-12-13T22:14:46.424Z,98766.80
2017-12-13T22:17:12.793Z,98761.01
2017-12-13T22:19:39.189Z,98765.27
2017-12-13T22:22:06.649Z,98760.70
2017-12-13T22:24:33.083Z,98778.36
2017-12-13T22:26:59.448Z,98751.57
2017-12-13T22:29:25.851Z,98785.42
2017-12-13T22:31:52.285Z,98785.08
2017-12-13T22:34:18.822Z,98764.84
2017-12-13T22:36:45.261Z,98752.52
2017-12-13T22:39:11.795Z,98728.28
2017-12-13T22:41:38.228Z,98757.86
2017-12-13T22:44:04.662Z,98773.20
2017-12-13T22:46:31.098Z,98772.28
2017-12-13T22:48:57.553Z,98765.87
2017-12-13T22:51:23.993Z,98780.92
2017-12-13T22:53:50.401Z,98781.33
2017-12-13T22:56:16.836Z,98758.45
2017-12-13T22:58:43.271Z,98780.34
2017-12-13T23:01:09.707Z,98782.83
2017-12-13T23:03:36.162Z,98788.08
2017-12-13T23:06:02.577Z,98791.89
2017-12-13T23:08:29.012Z,98784.07
2017-12-13T23:10:55.398Z,98766.20
2017-12-13T23:13:21.708Z,98771.16
2017-12-13T23:15:48.109Z,98772.41
2017-12-13T23:18:14.543Z,98768.75
2017-12-13T23:20:40.978Z,98784.17
2017-12-13T23:23:07.412Z,98772.55
2017-12-13T23:25:33.865Z,98782.77
2017-12-13T23:28:00.219Z,98768.11
2017-12-13T23:30:26.660Z,98776.30
2017-12-13T23:32:52.976Z,98781.00
2017-12-13T23:35:19.382Z,98761.66
2017-12-13T23:37:45.712Z,98782.58
2017-12-13T23:40:12.148Z,98789.14
2017-12-13T23:42:38.581Z,98800.81
2017-12-13T23:45:05.035Z,98796.39
2017-12-13T23:47:31.408Z,98801.10
2017-12-13T23:49:57.774Z,98808.78
2017-12-13T23:52:24.115Z,98818.75
2017-12-13T23:54:50.581Z,98814.59
2017-12-13T23:57:16.985Z,98814.98
2017-12-13T23:59:43.426Z,98790.25
